Aviation Digital Data Service (ADDS)

Output produced by METARs form (0015 UTC 21 January 2019)
found at http://www.aviationweather.gov/metar/data/
 
Forecast for: MKJP (KINGSTON/NORMAN , JM)
Text: TAF MKJP 202315Z 2100/2124 35003KT 9999 FEW022
Forecast period: 0000 to 1400 UTC 21 January 2019
Forecast type: FROM: standard forecast or significant change
Winds: from the N (350 degrees) at 3 MPH (3 knots; 1.5 m/s)
Visibility: 6 or more miles 10+ km)
Ceiling: at least 12,000 feet AGL
Clouds: few clouds at 2200 feet AGL
Weather: no significant weather forecast for this period
Text: BECMG 2114/2116 14010KT SCT020
Forecast period: 1400 UTC 21 January 2019 to 0000 UTC 22 January 2019
Forecast type: BECOMING: Conditions expected to become as follows by 1600 UTC 21 January 2019
Winds: from the SE (140 degrees) at 12 MPH (10 knots; 5.1 m/s)
Visibility: 6 or more miles 10+ km)
Ceiling: at least 12,000 feet AGL
Clouds: scattered clouds at 2000 feet AGL
Weather: no significant weather forecast for this period